sensor_id;sensor_type;location;lat;lon;timestamp;pressure;altitude;pressure_sealevel;temperature;humidity
3150;BME280;32503;47.748;8.960;2023-01-19T00:00:24;95860.13;;;1.38;60.33
3150;BME280;32503;47.748;8.960;2023-01-19T00:02:51;95859.66;;;1.36;60.82
3150;BME280;32503;47.748;8.960;2023-01-19T00:05:19;95867.97;;;1.34;60.90
3150;BME280;32503;47.748;8.960;2023-01-19T00:07:48;95857.03;;;1.27;60.76
3150;BME280;32503;47.748;8.960;2023-01-19T00:10:16;95867.38;;;1.28;60.53
3150;BME280;32503;47.748;8.960;2023-01-19T00:12:43;95859.22;;;1.25;60.71
3150;BME280;32503;47.748;8.960;2023-01-19T00:15:11;95862.34;;;1.27;60.83
3150;BME280;32503;47.748;8.960;2023-01-19T00:17:38;95868.34;;;1.24;60.79
3150;BME280;32503;47.748;8.960;2023-01-19T00:20:08;95861.13;;;1.24;60.98
3150;BME280;32503;47.748;8.960;2023-01-19T00:22:36;95869.88;;;1.25;61.36
3150;BME280;32503;47.748;8.960;2023-01-19T00:25:05;95872.84;;;1.23;61.66
3150;BME280;32503;47.748;8.960;2023-01-19T00:27:32;95871.63;;;1.21;61.64
3150;BME280;32503;47.748;8.960;2023-01-19T00:30:00;95876.03;;;1.17;61.93
3150;BME280;32503;47.748;8.960;2023-01-19T00:32:27;95873.53;;;1.11;62.25
3150;BME280;32503;47.748;8.960;2023-01-19T00:34:54;95875.25;;;1.07;62.29
3150;BME280;32503;47.748;8.960;2023-01-19T00:37:21;95883.25;;;0.99;62.47
3150;BME280;32503;47.748;8.960;2023-01-19T00:39:48;95863.84;;;0.89;62.77
3150;BME280;32503;47.748;8.960;2023-01-19T00:42:17;95874.97;;;0.83;63.06
3150;BME280;32503;47.748;8.960;2023-01-19T00:45:01;95877.31;;;0.84;63.16
3150;BME280;32503;47.748;8.960;2023-01-19T00:47:28;95872.00;;;0.84;63.31
3150;BME280;32503;47.748;8.960;2023-01-19T00:49:56;95876.41;;;0.80;63.59
3150;BME280;32503;47.748;8.960;2023-01-19T00:52:23;95872.00;;;0.75;63.43
3150;BME280;32503;47.748;8.960;2023-01-19T00:54:50;95876.88;;;0.73;63.68
3150;BME280;32503;47.748;8.960;2023-01-19T00:57:19;95876.25;;;0.77;63.72
3150;BME280;32503;47.748;8.960;2023-01-19T00:59:46;95874.66;;;0.75;63.65
3150;BME280;32503;47.748;8.960;2023-01-19T01:02:13;95880.94;;;0.80;63.60
3150;BME280;32503;47.748;8.960;2023-01-19T01:04:40;95886.72;;;0.82;63.97
3150;BME280;32503;47.748;8.960;2023-01-19T01:07:07;95888.59;;;0.81;63.36
3150;BME280;32503;47.748;8.960;2023-01-19T01:09:34;95886.56;;;0.78;63.42
3150;BME280;32503;47.748;8.960;2023-01-19T01:12:02;95892.81;;;0.73;63.92
3150;BME280;32503;47.748;8.960;2023-01-19T01:14:30;95897.22;;;0.69;63.83
3150;BME280;32503;47.748;8.960;2023-01-19T01:16:57;95894.41;;;0.74;63.73
3150;BME280;32503;47.748;8.960;2023-01-19T01:19:25;95885.31;;;0.75;63.58
3150;BME280;32503;47.748;8.960;2023-01-19T01:21:52;95885.31;;;0.75;63.64
3150;BME280;32503;47.748;8.960;2023-01-19T01:24:20;95886.25;;;0.80;63.39
3150;BME280;32503;47.748;8.960;2023-01-19T01:26:47;95898.31;;;0.77;63.71
3150;BME280;32503;47.748;8.960;2023-01-19T01:29:14;95897.84;;;0.75;63.52
3150;BME280;32503;47.748;8.960;2023-01-19T01:31:42;95900.34;;;0.71;63.55
3150;BME280;32503;47.748;8.960;2023-01-19T01:34:09;95894.88;;;0.68;63.66
3150;BME280;32503;47.748;8.960;2023-01-19T01:36:36;95902.06;;;0.67;63.64
3150;BME280;32503;47.748;8.960;2023-01-19T01:39:04;95895.47;;;0.65;63.55
3150;BME280;32503;47.748;8.960;2023-01-19T01:41:31;95906.13;;;0.65;63.61
3150;BME280;32503;47.748;8.960;2023-01-19T01:43:59;95910.97;;;0.63;63.72
3150;BME280;32503;47.748;8.960;2023-01-19T01:46:29;95916.00;;;0.64;63.63
3150;BME280;32503;47.748;8.960;2023-01-19T01:49:04;95913.03;;;0.66;63.38
3150;BME280;32503;47.748;8.960;2023-01-19T01:51:37;95915.38;;;0.67;63.35
3150;BME280;32503;47.748;8.960;2023-01-19T01:54:12;95919.44;;;0.65;63.23
3150;BME280;32503;47.748;8.960;2023-01-19T01:56:44;95921.94;;;0.61;63.05
3150;BME280;32503;47.748;8.960;2023-01-19T01:59:15;95923.19;;;0.55;63.32
3150;BME280;32503;47.748;8.960;2023-01-19T02:01:51;95925.69;;;0.60;63.50
3150;BME280;32503;47.748;8.960;2023-01-19T02:04:38;95929.91;;;0.52;63.37
3150;BME280;32503;47.748;8.960;2023-01-19T02:07:06;95926.94;;;0.54;63.23
3150;BME280;32503;47.748;8.960;2023-01-19T02:09:50;95925.06;;;0.54;63.19
3150;BME280;32503;47.748;8.960;2023-01-19T02:12:35;95936.16;;;0.48;62.92
3150;BME280;32503;47.748;8.960;2023-01-19T02:15:20;95932.56;;;0.44;63.12
3150;BME280;32503;47.748;8.960;2023-01-19T02:17:47;95934.28;;;0.40;63.18
3150;BME280;32503;47.748;8.960;2023-01-19T02:20:19;95933.81;;;0.37;63.40
3150;BME280;32503;47.748;8.960;2023-01-19T02:22:49;95929.25;;;0.29;63.42
3150;BME280;32503;47.748;8.960;2023-01-19T02:25:19;95929.38;;;0.24;63.88
3150;BME280;32503;47.748;8.960;2023-01-19T02:27:47;95940.66;;;0.30;63.80
3150;BME280;32503;47.748;8.960;2023-01-19T02:30:15;95938.81;;;0.30;64.06
3150;BME280;32503;47.748;8.960;2023-01-19T02:32:43;95939.41;;;0.27;63.77
3150;BME280;32503;47.748;8.960;2023-01-19T02:35:11;95931.75;;;0.26;63.62
3150;BME280;32503;47.748;8.960;2023-01-19T02:37:39;95937.97;;;0.21;64.17
3150;BME280;32503;47.748;8.960;2023-01-19T02:40:10;95947.22;;;0.24;64.05
3150;BME280;32503;47.748;8.960;2023-01-19T02:42:42;95950.66;;;0.24;64.11
3150;BME280;32503;47.748;8.960;2023-01-19T02:45:12;95945.66;;;0.23;64.13
3150;BME280;32503;47.748;8.960;2023-01-19T02:47:43;95932.84;;;0.16;64.36
3150;BME280;32503;47.748;8.960;2023-01-19T02:50:37;95949.72;;;0.20;64.38
3150;BME280;32503;47.748;8.960;2023-01-19T02:56:30;95953.91;;;0.12;64.85
3150;BME280;32503;47.748;8.960;2023-01-19T02:59:09;95963.75;;;0.12;64.99
3150;BME280;32503;47.748;8.960;2023-01-19T03:01:54;95957.66;;;0.11;65.10
3150;BME280;32503;47.748;8.960;2023-01-19T03:04:39;95953.44;;;0.10;64.84
3150;BME280;32503;47.748;8.960;2023-01-19T03:07:15;95961.72;;;0.09;65.13
3150;BME280;32503;47.748;8.960;2023-01-19T03:09:54;95951.69;;;-0.03;65.93
3150;BME280;32503;47.748;8.960;2023-01-19T03:12:30;95949.50;;;-0.01;65.70
3150;BME280;32503;47.748;8.960;2023-01-19T03:15:11;95954.03;;;-0.02;65.53
3150;BME280;32503;47.748;8.960;2023-01-19T03:17:41;95956.19;;;-0.04;65.76
3150;BME280;32503;47.748;8.960;2023-01-19T03:20:11;95952.59;;;-0.08;65.66
3150;BME280;32503;47.748;8.960;2023-01-19T03:22:40;95954.03;;;-0.02;65.80
3150;BME280;32503;47.748;8.960;2023-01-19T03:25:10;95957.91;;;-0.08;65.78
3150;BME280;32503;47.748;8.960;2023-01-19T03:27:41;95963.84;;;-0.11;65.94
3150;BME280;32503;47.748;8.960;2023-01-19T03:30:16;95962.41;;;-0.17;66.31
3150;BME280;32503;47.748;8.960;2023-01-19T03:32:50;95968.38;;;-0.11;65.90
3150;BME280;32503;47.748;8.960;2023-01-19T03:35:20;95971.19;;;-0.08;65.94
3150;BME280;32503;47.748;8.960;2023-01-19T03:37:51;95969.31;;;-0.07;65.73
3150;BME280;32503;47.748;8.960;2023-01-19T03:40:20;95966.66;;;-0.07;65.44
3150;BME280;32503;47.748;8.960;2023-01-19T03:42:49;95954.91;;;-0.15;65.55
3150;BME280;32503;47.748;8.960;2023-01-19T03:45:17;95965.53;;;-0.15;65.15
3150;BME280;32503;47.748;8.960;2023-01-19T03:47:46;95969.78;;;-0.14;65.27
3150;BME280;32503;47.748;8.960;2023-01-19T03:50:23;95959.41;;;-0.24;65.97
3150;BME280;32503;47.748;8.960;2023-01-19T03:53:00;95970.09;;;-0.15;65.55
3150;BME280;32503;47.748;8.960;2023-01-19T03:55:28;95970.53;;;-0.22;65.77
3150;BME280;32503;47.748;8.960;2023-01-19T03:57:55;95966.78;;;-0.21;65.94
3150;BME280;32503;47.748;8.960;2023-01-19T04:00:24;95969.63;;;-0.17;66.09
3150;BME280;32503;47.748;8.960;2023-01-19T04:02:51;95967.44;;;-0.15;65.37
3150;BME280;32503;47.748;8.960;2023-01-19T04:05:18;95973.19;;;-0.22;65.68
3150;BME280;32503;47.748;8.960;2023-01-19T04:07:47;95976.09;;;-0.32;66.14
3150;BME280;32503;47.748;8.960;2023-01-19T04:10:15;95971.72;;;-0.28;65.98
3150;BME280;32503;47.748;8.960;2023-01-19T04:12:43;95975.78;;;-0.31;65.97
3150;BME280;32503;47.748;8.960;2023-01-19T04:15:10;95985.94;;;-0.33;65.89
3150;BME280;32503;47.748;8.960;2023-01-19T04:17:39;95976.84;;;-0.41;66.42
3150;BME280;32503;47.748;8.960;2023-01-19T04:20:08;95979.50;;;-0.41;65.95
3150;BME280;32503;47.748;8.960;2023-01-19T04:22:35;95979.94;;;-0.47;66.50
3150;BME280;32503;47.748;8.960;2023-01-19T04:25:05;95983.25;;;-0.42;66.08
3150;BME280;32503;47.748;8.960;2023-01-19T04:27:32;95967.56;;;-0.52;66.11
3150;BME280;32503;47.748;8.960;2023-01-19T04:30:00;95983.84;;;-0.45;66.44
3150;BME280;32503;47.748;8.960;2023-01-19T04:32:28;95982.13;;;-0.49;66.34
3150;BME280;32503;47.748;8.960;2023-01-19T04:34:56;95972.56;;;-0.50;66.14
3150;BME280;32503;47.748;8.960;2023-01-19T04:37:24;95978.19;;;-0.52;66.17
3150;BME280;32503;47.748;8.960;2023-01-19T04:39:51;95985.75;;;-0.36;65.79
3150;BME280;32503;47.748;8.960;2023-01-19T04:42:18;95988.41;;;-0.36;65.91
3150;BME280;32503;47.748;8.960;2023-01-19T04:44:45;95984.81;;;-0.41;65.77
3150;BME280;32503;47.748;8.960;2023-01-19T04:47:12;95989.44;;;-0.46;65.56
3150;BME280;32503;47.748;8.960;2023-01-19T04:49:39;95993.50;;;-0.49;65.94
3150;BME280;32503;47.748;8.960;2023-01-19T04:52:07;95985.06;;;-0.51;65.59
3150;BME280;32503;47.748;8.960;2023-01-19T04:54:34;95981.44;;;-0.55;65.47
3150;BME280;32503;47.748;8.960;2023-01-19T04:57:01;95992.69;;;-0.58;65.86
3150;BME280;32503;47.748;8.960;2023-01-19T04:59:28;95992.19;;;-0.60;65.81
3150;BME280;32503;47.748;8.960;2023-01-19T05:01:55;95995.75;;;-0.65;65.51
3150;BME280;32503;47.748;8.960;2023-01-19T05:04:23;96004.78;;;-0.66;65.67
3150;BME280;32503;47.748;8.960;2023-01-19T05:06:50;96003.25;;;-0.67;65.50
3150;BME280;32503;47.748;8.960;2023-01-19T05:09:20;95998.22;;;-0.68;65.61
3150;BME280;32503;47.748;8.960;2023-01-19T05:11:47;96005.72;;;-0.70;65.56
3150;BME280;32503;47.748;8.960;2023-01-19T05:14:14;95999.97;;;-0.64;65.65
3150;BME280;32503;47.748;8.960;2023-01-19T05:16:41;96009.03;;;-0.65;65.43
3150;BME280;32503;47.748;8.960;2023-01-19T05:19:08;95998.94;;;-0.77;65.86
3150;BME280;32503;47.748;8.960;2023-01-19T05:21:35;96014.31;;;-0.87;66.64
3150;BME280;32503;47.748;8.960;2023-01-19T05:24:02;96017.38;;;-0.94;67.45
3150;BME280;32503;47.748;8.960;2023-01-19T05:26:31;96020.41;;;-0.87;66.92
3150;BME280;32503;47.748;8.960;2023-01-19T05:28:58;96024.06;;;-0.83;66.76
3150;BME280;32503;47.748;8.960;2023-01-19T05:31:25;96021.41;;;-0.83;67.01
3150;BME280;32503;47.748;8.960;2023-01-19T05:33:52;96015.09;;;-0.87;67.09
3150;BME280;32503;47.748;8.960;2023-01-19T05:36:19;96019.94;;;-0.89;67.38
3150;BME280;32503;47.748;8.960;2023-01-19T05:38:46;96017.88;;;-0.92;67.69
3150;BME280;32503;47.748;8.960;2023-01-19T05:41:13;96020.72;;;-0.88;67.76
3150;BME280;32503;47.748;8.960;2023-01-19T05:43:43;96024.66;;;-0.86;67.52
3150;BME280;32503;47.748;8.960;2023-01-19T05:46:10;96024.94;;;-0.87;67.11
3150;BME280;32503;47.748;8.960;2023-01-19T05:48:37;96024.16;;;-0.88;67.00
3150;BME280;32503;47.748;8.960;2023-01-19T05:51:05;96024.16;;;-0.88;66.87
3150;BME280;32503;47.748;8.960;2023-01-19T05:53:33;96029.47;;;-0.88;66.68
3150;BME280;32503;47.748;8.960;2023-01-19T05:56:01;96028.19;;;-0.90;67.13
3150;BME280;32503;47.748;8.960;2023-01-19T05:58:28;96027.88;;;-0.89;66.53
3150;BME280;32503;47.748;8.960;2023-01-19T06:01:01;96039.69;;;-0.81;66.26
3150;BME280;32503;47.748;8.960;2023-01-19T06:03:30;96040.16;;;-0.79;66.10
3150;BME280;32503;47.748;8.960;2023-01-19T06:05:57;96047.50;;;-0.76;65.72
3150;BME280;32503;47.748;8.960;2023-01-19T06:08:25;96044.47;;;-0.83;65.74
3150;BME280;32503;47.748;8.960;2023-01-19T06:10:52;96051.00;;;-0.89;65.93
3150;BME280;32503;47.748;8.960;2023-01-19T06:13:19;96048.75;;;-0.96;66.00
3150;BME280;32503;47.748;8.960;2023-01-19T06:15:47;96055.25;;;-1.02;66.26
3150;BME280;32503;47.748;8.960;2023-01-19T06:18:15;96053.78;;;-1.08;65.93
3150;BME280;32503;47.748;8.960;2023-01-19T06:20:42;96031.06;;;-1.23;65.89
3150;BME280;32503;47.748;8.960;2023-01-19T06:23:09;96061.34;;;-1.02;65.79
3150;BME280;32503;47.748;8.960;2023-01-19T06:25:36;96054.75;;;-1.04;66.24
3150;BME280;32503;47.748;8.960;2023-01-19T06:28:04;96055.84;;;-1.05;65.97
3150;BME280;32503;47.748;8.960;2023-01-19T06:30:31;96064.78;;;-1.01;66.49
3150;BME280;32503;47.748;8.960;2023-01-19T06:32:58;96065.06;;;-1.03;65.79
3150;BME280;32503;47.748;8.960;2023-01-19T06:35:26;96061.34;;;-1.02;66.05
3150;BME280;32503;47.748;8.960;2023-01-19T06:37:53;96067.56;;;-0.25;70.56
3150;BME280;32503;47.748;8.960;2023-01-19T06:40:20;96064.69;;;0.92;70.22
3150;BME280;32503;47.748;8.960;2023-01-19T06:42:48;96064.19;;;0.72;68.01
3150;BME280;32503;47.748;8.960;2023-01-19T06:45:15;96068.31;;;0.38;66.82
3150;BME280;32503;47.748;8.960;2023-01-19T06:47:42;96069.72;;;0.05;66.17
3150;BME280;32503;47.748;8.960;2023-01-19T06:50:10;96065.59;;;-0.10;67.03
3150;BME280;32503;47.748;8.960;2023-01-19T06:52:38;96076.47;;;-0.21;66.66
3150;BME280;32503;47.748;8.960;2023-01-19T06:55:08;96079.50;;;-0.36;66.21
3150;BME280;32503;47.748;8.960;2023-01-19T06:57:35;96089.69;;;-0.52;65.47
3150;BME280;32503;47.748;8.960;2023-01-19T07:00:05;96099.75;;;-0.63;65.99
3150;BME280;32503;47.748;8.960;2023-01-19T07:02:33;96078.38;;;-0.80;65.56
3150;BME280;32503;47.748;8.960;2023-01-19T07:05:00;96099.81;;;-0.77;65.49
3150;BME280;32503;47.748;8.960;2023-01-19T07:07:27;96100.38;;;-0.80;65.60
3150;BME280;32503;47.748;8.960;2023-01-19T07:09:56;96102.38;;;-0.85;65.48
3150;BME280;32503;47.748;8.960;2023-01-19T07:12:23;96104.06;;;-0.89;65.48
3150;BME280;32503;47.748;8.960;2023-01-19T07:14:50;96102.78;;;-0.92;65.54
3150;BME280;32503;47.748;8.960;2023-01-19T07:17:17;96102.78;;;-0.92;65.61
3150;BME280;32503;47.748;8.960;2023-01-19T07:19:45;96114.38;;;-0.88;65.86
3150;BME280;32503;47.748;8.960;2023-01-19T07:22:12;96109.09;;;-0.88;65.55
3150;BME280;32503;47.748;8.960;2023-01-19T07:24:39;96106.91;;;-0.86;65.07
3150;BME280;32503;47.748;8.960;2023-01-19T07:27:07;96114.28;;;-0.83;65.20
3150;BME280;32503;47.748;8.960;2023-01-19T07:29:36;96115.53;;;-0.80;64.78
3150;BME280;32503;47.748;8.960;2023-01-19T07:32:03;96119.47;;;-0.78;65.10
3150;BME280;32503;47.748;8.960;2023-01-19T07:34:30;96122.00;;;-0.72;65.08
3150;BME280;32503;47.748;8.960;2023-01-19T07:36:58;96119.84;;;-0.70;64.67
3150;BME280;32503;47.748;8.960;2023-01-19T07:39:25;96126.72;;;-0.69;64.83
3150;BME280;32503;47.748;8.960;2023-01-19T07:41:52;96117.31;;;-0.75;64.52
3150;BME280;32503;47.748;8.960;2023-01-19T07:44:20;96130.22;;;-0.60;64.42
3150;BME280;32503;47.748;8.960;2023-01-19T07:46:48;96138.06;;;-0.55;63.83
3150;BME280;32503;47.748;8.960;2023-01-19T07:49:16;96133.75;;;-0.51;64.08
3150;BME280;32503;47.748;8.960;2023-01-19T07:51:43;96133.66;;;-0.46;63.91
3150;BME280;32503;47.748;8.960;2023-01-19T07:54:10;96138.84;;;-0.41;63.97
3150;BME280;32503;47.748;8.960;2023-01-19T07:56:37;96136.78;;;-0.21;64.13
3150;BME280;32503;47.748;8.960;2023-01-19T07:59:04;96137.81;;;0.14;63.89
3150;BME280;32503;47.748;8.960;2023-01-19T08:01:35;96139.69;;;0.54;63.10
3150;BME280;32503;47.748;8.960;2023-01-19T08:04:02;96135.13;;;0.86;61.64
3150;BME280;32503;47.748;8.960;2023-01-19T08:06:34;96146.50;;;1.35;61.24
3150;BME280;32503;47.748;8.960;2023-01-19T08:09:01;96152.16;;;1.77;60.83
3150;BME280;32503;47.748;8.960;2023-01-19T08:11:30;96143.59;;;2.27;59.05
3150;BME280;32503;47.748;8.960;2023-01-19T08:13:57;96146.00;;;2.68;57.82
3150;BME280;32503;47.748;8.960;2023-01-19T08:16:24;96154.47;;;3.08;55.83
3150;BME280;32503;47.748;8.960;2023-01-19T08:18:53;96150.88;;;3.34;55.43
3150;BME280;32503;47.748;8.960;2023-01-19T08:21:20;96148.59;;;3.87;54.79
3150;BME280;32503;47.748;8.960;2023-01-19T08:23:51;96160.88;;;4.79;53.03
3150;BME280;32503;47.748;8.960;2023-01-19T08:26:23;96157.84;;;5.30;51.74
3150;BME280;32503;47.748;8.960;2023-01-19T08:28:52;96156.38;;;5.45;50.51
3150;BME280;32503;47.748;8.960;2023-01-19T08:31:19;96158.81;;;5.50;49.56
3150;BME280;32503;47.748;8.960;2023-01-19T08:33:47;96152.44;;;6.07;49.19
3150;BME280;32503;47.748;8.960;2023-01-19T08:36:15;96156.59;;;6.65;47.30
3150;BME280;32503;47.748;8.960;2023-01-19T08:38:44;96151.22;;;7.13;45.68
3150;BME280;32503;47.748;8.960;2023-01-19T08:41:11;96155.63;;;7.37;44.86
3150;BME280;32503;47.748;8.960;2023-01-19T08:43:38;96151.94;;;7.81;44.06
3150;BME280;32503;47.748;8.960;2023-01-19T08:46:05;96159.75;;;8.05;43.88
3150;BME280;32503;47.748;8.960;2023-01-19T08:48:32;96161.78;;;8.31;43.72
3150;BME280;32503;47.748;8.960;2023-01-19T08:50:59;96154.25;;;8.60;42.13
3150;BME280;32503;47.748;8.960;2023-01-19T08:53:28;96154.31;;;8.87;42.02
3150;BME280;32503;47.748;8.960;2023-01-19T08:55:56;96156.72;;;8.92;41.77
3150;BME280;32503;47.748;8.960;2023-01-19T08:58:24;96160.28;;;8.77;41.44
3150;BME280;32503;47.748;8.960;2023-01-19T09:00:52;96166.78;;;8.72;41.44
3150;BME280;32503;47.748;8.960;2023-01-19T09:03:19;96160.75;;;8.59;41.62
3150;BME280;32503;47.748;8.960;2023-01-19T09:05:47;96159.50;;;8.33;41.46
3150;BME280;32503;47.748;8.960;2023-01-19T09:08:15;96163.06;;;7.79;42.45
3150;BME280;32503;47.748;8.960;2023-01-19T09:10:48;96162.16;;;7.20;43.69
3150;BME280;32503;47.748;8.960;2023-01-19T09:13:17;96164.22;;;6.63;44.28
3150;BME280;32503;47.748;8.960;2023-01-19T09:15:45;96170.41;;;6.35;45.38
3150;BME280;32503;47.748;8.960;2023-01-19T09:18:14;96164.00;;;5.96;46.97
3150;BME280;32503;47.748;8.960;2023-01-19T09:20:44;96168.97;;;5.69;46.85
3150;BME280;32503;47.748;8.960;2023-01-19T09:23:13;96170.00;;;5.40;47.56
3150;BME280;32503;47.748;8.960;2023-01-19T09:25:43;96164.88;;;5.22;48.03
3150;BME280;32503;47.748;8.960;2023-01-19T09:28:14;96155.28;;;5.34;49.26
3150;BME280;32503;47.748;8.960;2023-01-19T09:30:43;96173.66;;;5.72;48.06
3150;BME280;32503;47.748;8.960;2023-01-19T10:24:43;96150.59;;;8.10;41.92
3150;BME280;32503;47.748;8.960;2023-01-19T10:27:16;96138.28;;;8.09;42.18
3150;BME280;32503;47.748;8.960;2023-01-19T10:29:44;96144.84;;;8.11;42.29
3150;BME280;32503;47.748;8.960;2023-01-19T10:32:14;96146.28;;;8.05;42.35
3150;BME280;32503;47.748;8.960;2023-01-19T10:34:44;96146.91;;;8.18;42.06
3150;BME280;32503;47.748;8.960;2023-01-19T10:37:23;96143.34;;;8.33;41.38
3150;BME280;32503;47.748;8.960;2023-01-19T10:39:57;96147.03;;;8.25;41.00
3150;BME280;32503;47.748;8.960;2023-01-19T10:42:28;96146.41;;;8.32;40.99
3150;BME280;32503;47.748;8.960;2023-01-19T10:44:56;96145.38;;;8.17;40.67
3150;BME280;32503;47.748;8.960;2023-01-19T10:47:29;96134.50;;;8.13;41.46
3150;BME280;32503;47.748;8.960;2023-01-19T10:49:58;96126.81;;;8.12;41.55
3150;BME280;32503;47.748;8.960;2023-01-19T10:52:29;96110.13;;;8.26;41.00
3150;BME280;32503;47.748;8.960;2023-01-19T10:55:01;96125.03;;;8.62;40.60
3150;BME280;32503;47.748;8.960;2023-01-19T10:57:31;96135.34;;;8.80;39.74
3150;BME280;32503;47.748;8.960;2023-01-19T11:00:03;96130.59;;;8.50;39.95
3150;BME280;32503;47.748;8.960;2023-01-19T11:02:31;96111.41;;;8.32;40.45
3150;BME280;32503;47.748;8.960;2023-01-19T11:05:00;96126.03;;;8.34;40.89
3150;BME280;32503;47.748;8.960;2023-01-19T11:07:29;96127.13;;;8.30;40.71
3150;BME280;32503;47.748;8.960;2023-01-19T11:10:21;96122.69;;;8.18;40.54
3150;BME280;32503;47.748;8.960;2023-01-19T11:13:00;96108.88;;;8.00;40.13
3150;BME280;32503;47.748;8.960;2023-01-19T11:15:32;96088.34;;;7.72;40.89
3150;BME280;32503;47.748;8.960;2023-01-19T11:18:02;96122.19;;;7.73;40.45
3150;BME280;32503;47.748;8.960;2023-01-19T11:20:39;96109.38;;;7.86;41.12
3150;BME280;32503;47.748;8.960;2023-01-19T11:23:23;96110.88;;;7.84;40.58
3150;BME280;32503;47.748;8.960;2023-01-19T11:25:56;96094.16;;;7.55;40.51
3150;BME280;32503;47.748;8.960;2023-01-19T11:28:27;96113.25;;;7.69;40.67
3150;BME280;32503;47.748;8.960;2023-01-19T11:30:58;96111.00;;;7.52;40.82
3150;BME280;32503;47.748;8.960;2023-01-19T11:33:33;96108.94;;;7.45;41.14
3150;BME280;32503;47.748;8.960;2023-01-19T11:36:08;96110.28;;;7.19;42.15
3150;BME280;32503;47.748;8.960;2023-01-19T11:38:42;96035.50;;;6.38;43.33
3150;BME280;32503;47.748;8.960;2023-01-19T11:41:17;96116.94;;;6.74;43.26
3150;BME280;32503;47.748;8.960;2023-01-19T11:43:47;96116.56;;;6.60;43.47
3150;BME280;32503;47.748;8.960;2023-01-19T11:46:17;96107.47;;;6.49;43.60
3150;BME280;32503;47.748;8.960;2023-01-19T11:48:51;96125.31;;;6.25;44.02
3150;BME280;32503;47.748;8.960;2023-01-19T11:51:22;96117.81;;;6.02;45.31
3150;BME280;32503;47.748;8.960;2023-01-19T11:53:52;96118.50;;;5.87;45.29
3150;BME280;32503;47.748;8.960;2023-01-19T11:56:24;96110.22;;;5.92;45.72
3150;BME280;32503;47.748;8.960;2023-01-19T11:58:53;96081.19;;;5.82;45.79
3150;BME280;32503;47.748;8.960;2023-01-19T12:01:23;96092.78;;;5.98;45.44
3150;BME280;32503;47.748;8.960;2023-01-19T12:03:56;96109.25;;;6.13;44.80
3150;BME280;32503;47.748;8.960;2023-01-19T12:06:29;96094.28;;;6.12;44.99
3150;BME280;32503;47.748;8.960;2023-01-19T12:09:02;96086.91;;;6.08;45.02
3150;BME280;32503;47.748;8.960;2023-01-19T12:11:36;96112.84;;;6.33;44.25
3150;BME280;32503;47.748;8.960;2023-01-19T12:14:10;96105.97;;;6.19;44.47
3150;BME280;32503;47.748;8.960;2023-01-19T12:16:40;96106.81;;;6.07;44.85
3150;BME280;32503;47.748;8.960;2023-01-19T12:19:14;96102.13;;;6.04;44.89
3150;BME280;32503;47.748;8.960;2023-01-19T12:21:43;96105.25;;;6.06;44.51
3150;BME280;32503;47.748;8.960;2023-01-19T12:24:15;96089.66;;;5.96;44.46
3150;BME280;32503;47.748;8.960;2023-01-19T12:26:51;96107.25;;;5.81;44.66
3150;BME280;32503;47.748;8.960;2023-01-19T12:29:20;96111.28;;;5.75;43.93
3150;BME280;32503;47.748;8.960;2023-01-19T12:32:30;96100.94;;;5.61;44.47
3150;BME280;32503;47.748;8.960;2023-01-19T12:34:58;96112.78;;;5.60;45.01
3150;BME280;32503;47.748;8.960;2023-01-19T12:37:37;96111.78;;;5.65;45.65
3150;BME280;32503;47.748;8.960;2023-01-19T12:40:22;96077.22;;;5.35;46.13
3150;BME280;32503;47.748;8.960;2023-01-19T12:42:58;96104.41;;;5.62;45.58
3150;BME280;32503;47.748;8.960;2023-01-19T12:45:30;96061.47;;;5.34;45.80
3150;BME280;32503;47.748;8.960;2023-01-19T12:47:58;96102.88;;;5.48;46.39
3150;BME280;32503;47.748;8.960;2023-01-19T12:50:26;96110.78;;;5.57;45.77
3150;BME280;32503;47.748;8.960;2023-01-19T12:53:00;96110.97;;;5.64;45.95
3150;BME280;32503;47.748;8.960;2023-01-19T12:55:30;96104.94;;;5.67;46.01
3150;BME280;32503;47.748;8.960;2023-01-19T12:58:02;96075.91;;;5.57;45.45
3150;BME280;32503;47.748;8.960;2023-01-19T13:00:36;96100.00;;;5.69;44.84
3150;BME280;32503;47.748;8.960;2023-01-19T13:03:46;96091.47;;;5.80;45.45
3150;BME280;32503;47.748;8.960;2023-01-19T13:07:07;96094.16;;;5.80;45.29
3150;BME280;32503;47.748;8.960;2023-01-19T13:09:37;96094.13;;;5.92;44.40
3150;BME280;32503;47.748;8.960;2023-01-19T13:12:24;96091.97;;;5.69;44.98
3150;BME280;32503;47.748;8.960;2023-01-19T13:15:33;96092.81;;;5.58;44.38
3150;BME280;32503;47.748;8.960;2023-01-19T13:18:00;96091.16;;;5.41;44.38
3150;BME280;32503;47.748;8.960;2023-01-19T13:20:35;96091.59;;;5.43;45.12
3150;BME280;32503;47.748;8.960;2023-01-19T13:23:51;96088.78;;;5.51;44.30
3150;BME280;32503;47.748;8.960;2023-01-19T13:26:20;96083.00;;;5.49;44.13
3150;BME280;32503;47.748;8.960;2023-01-19T13:28:51;96088.13;;;5.55;43.57
3150;BME280;32503;47.748;8.960;2023-01-19T13:31:20;96065.03;;;5.38;44.31
3150;BME280;32503;47.748;8.960;2023-01-19T13:33:51;96063.28;;;5.29;43.22
3150;BME280;32503;47.748;8.960;2023-01-19T13:36:24;96064.59;;;5.36;43.70
3150;BME280;32503;47.748;8.960;2023-01-19T13:38:54;96084.19;;;5.52;42.79
3150;BME280;32503;47.748;8.960;2023-01-19T13:41:24;96085.47;;;5.42;43.22
3150;BME280;32503;47.748;8.960;2023-01-19T13:43:59;96067.94;;;5.32;43.25
3150;BME280;32503;47.748;8.960;2023-01-19T13:46:29;96081.31;;;5.45;43.34
3150;BME280;32503;47.748;8.960;2023-01-19T13:49:01;96067.56;;;5.46;43.71
3150;BME280;32503;47.748;8.960;2023-01-19T13:51:30;96076.06;;;5.48;43.20
3150;BME280;32503;47.748;8.960;2023-01-19T13:53:59;96076.75;;;5.45;43.30
3150;BME280;32503;47.748;8.960;2023-01-19T13:56:28;96071.41;;;5.45;43.42
3150;BME280;32503;47.748;8.960;2023-01-19T13:59:02;96079.88;;;5.47;43.39
3150;BME280;32503;47.748;8.960;2023-01-19T14:01:33;96079.06;;;5.47;42.75
3150;BME280;32503;47.748;8.960;2023-01-19T14:04:00;96076.06;;;5.48;42.67
3150;BME280;32503;47.748;8.960;2023-01-19T14:06:35;96077.63;;;5.49;43.30
3150;BME280;32503;47.748;8.960;2023-01-19T14:09:12;96072.81;;;5.55;43.22
3150;BME280;32503;47.748;8.960;2023-01-19T14:11:41;96072.81;;;5.55;42.68
3150;BME280;32503;47.748;8.960;2023-01-19T14:14:25;96048.50;;;5.36;42.55
3150;BME280;32503;47.748;8.960;2023-01-19T14:16:54;96073.94;;;5.54;42.96
3150;BME280;32503;47.748;8.960;2023-01-19T14:19:21;96072.44;;;5.28;42.95
3150;BME280;32503;47.748;8.960;2023-01-19T14:21:59;96074.31;;;5.40;43.11
3150;BME280;32503;47.748;8.960;2023-01-19T14:24:26;96059.59;;;5.22;42.75
3150;BME280;32503;47.748;8.960;2023-01-19T14:27:17;96064.25;;;5.37;42.82
3150;BME280;32503;47.748;8.960;2023-01-19T14:29:46;96058.66;;;5.02;43.68